sensor_id;sensor_type;location;lat;lon;timestamp;pressure;altitude;pressure_sealevel;temperature;humidity
9721;BME280;4899;42.644;23.366;2023-04-10T00:00:06;94370.84;;;7.15;100.00
9721;BME280;4899;42.644;23.366;2023-04-10T00:02:32;94354.00;;;7.14;100.00
9721;BME280;4899;42.644;23.366;2023-04-10T00:04:59;94371.81;;;7.19;100.00
9721;BME280;4899;42.644;23.366;2023-04-10T00:07:25;94358.00;;;7.20;100.00
9721;BME280;4899;42.644;23.366;2023-04-10T00:09:50;94354.94;;;7.18;100.00
9721;BME280;4899;42.644;23.366;2023-04-10T00:12:16;94364.06;;;7.24;100.00
9721;BME280;4899;42.644;23.366;2023-04-10T00:14:41;94343.66;;;7.19;100.00
9721;BME280;4899;42.644;23.366;2023-04-10T00:17:08;94358.25;;;7.18;100.00
9721;BME280;4899;42.644;23.366;2023-04-10T00:19:34;94342.66;;;7.20;100.00
9721;BME280;4899;42.644;23.366;2023-04-10T00:21:59;94335.47;;;7.22;100.00
9721;BME280;4899;42.644;23.366;2023-04-10T00:24:25;94340.97;;;7.29;100.00
9721;BME280;4899;42.644;23.366;2023-04-10T00:26:50;94336.59;;;7.29;100.00
9721;BME280;4899;42.644;23.366;2023-04-10T00:29:16;94347.03;;;7.33;100.00
9721;BME280;4899;42.644;23.366;2023-04-10T00:31:42;94345.50;;;7.32;100.00
9721;BME280;4899;42.644;23.366;2023-04-10T00:34:07;94334.50;;;7.31;100.00
9721;BME280;4899;42.644;23.366;2023-04-10T00:36:33;94325.50;;;7.20;100.00
9721;BME280;4899;42.644;23.366;2023-04-10T00:38:59;94343.31;;;7.25;100.00
9721;BME280;4899;42.644;23.366;2023-04-10T00:41:25;94341.81;;;7.24;100.00
9721;BME280;4899;42.644;23.366;2023-04-10T00:43:55;94342.09;;;7.23;100.00
9721;BME280;4899;42.644;23.366;2023-04-10T00:46:21;94328.31;;;7.19;100.00
9721;BME280;4899;42.644;23.366;2023-04-10T00:48:47;94325.84;;;7.14;100.00
9721;BME280;4899;42.644;23.366;2023-04-10T00:51:13;94330.41;;;7.17;100.00
9721;BME280;4899;42.644;23.366;2023-04-10T00:53:38;94332.19;;;7.16;100.00
9721;BME280;4899;42.644;23.366;2023-04-10T00:56:05;94335.47;;;7.22;100.00
9721;BME280;4899;42.644;23.366;2023-04-10T00:58:31;94335.06;;;7.28;100.00
9721;BME280;4899;42.644;23.366;2023-04-10T01:00:56;94283.88;;;7.01;100.00
9721;BME280;4899;42.644;23.366;2023-04-10T01:03:23;94327.69;;;7.27;100.00
9721;BME280;4899;42.644;23.366;2023-04-10T01:14:04;94316.78;;;7.21;100.00
9721;BME280;4899;42.644;23.366;2023-04-10T01:16:54;94310.31;;;7.10;100.00
9721;BME280;4899;42.644;23.366;2023-04-10T01:22:02;94321.78;;;7.13;100.00
9721;BME280;4899;42.644;23.366;2023-04-10T01:29:57;94307.38;;;7.03;100.00
9721;BME280;4899;42.644;23.366;2023-04-10T01:32:26;94309.00;;;7.13;100.00
9721;BME280;4899;42.644;23.366;2023-04-10T01:34:56;94311.47;;;7.18;100.00
9721;BME280;4899;42.644;23.366;2023-04-10T01:37:30;94314.31;;;7.16;100.00
9721;BME280;4899;42.644;23.366;2023-04-10T01:40:03;94308.22;;;7.12;100.00
9721;BME280;4899;42.644;23.366;2023-04-10T01:42:56;94316.50;;;7.23;100.00
9721;BME280;4899;42.644;23.366;2023-04-10T01:45:25;94319.72;;;7.28;100.00
9721;BME280;4899;42.644;23.366;2023-04-10T01:47:53;94316.50;;;7.23;100.00
9721;BME280;4899;42.644;23.366;2023-04-10T01:50:20;94316.50;;;7.23;100.00
9721;BME280;4899;42.644;23.366;2023-04-10T01:52:49;94304.47;;;7.23;100.00
9721;BME280;4899;42.644;23.366;2023-04-10T01:55:15;94315.38;;;7.29;100.00
9721;BME280;4899;42.644;23.366;2023-04-10T01:57:41;94316.41;;;7.28;100.00
9721;BME280;4899;42.644;23.366;2023-04-10T02:00:07;94319.91;;;7.32;100.00
9721;BME280;4899;42.644;23.366;2023-04-10T02:02:33;94321.81;;;7.40;100.00
9721;BME280;4899;42.644;23.366;2023-04-10T02:04:59;94320.00;;;7.40;100.00
9721;BME280;4899;42.644;23.366;2023-04-10T02:07:32;94313.84;;;7.41;100.00
9721;BME280;4899;42.644;23.366;2023-04-10T02:12:53;94305.06;;;7.48;100.00
9721;BME280;4899;42.644;23.366;2023-04-10T02:15:23;94306.00;;;7.52;100.00
9721;BME280;4899;42.644;23.366;2023-04-10T02:17:51;94291.50;;;7.47;100.00
9721;BME280;4899;42.644;23.366;2023-04-10T02:20:17;94292.84;;;7.45;100.00
9721;BME280;4899;42.644;23.366;2023-04-10T02:22:43;94292.25;;;7.48;100.00
9721;BME280;4899;42.644;23.366;2023-04-10T02:25:10;94298.31;;;7.52;100.00
9721;BME280;4899;42.644;23.366;2023-04-10T02:27:36;94294.53;;;7.49;100.00
9721;BME280;4899;42.644;23.366;2023-04-10T02:30:03;94285.69;;;7.41;100.00
9721;BME280;4899;42.644;23.366;2023-04-10T02:32:29;94281.34;;;7.42;100.00
9721;BME280;4899;42.644;23.366;2023-04-10T02:34:55;94276.91;;;7.34;100.00
9721;BME280;4899;42.644;23.366;2023-04-10T02:37:22;94281.09;;;7.44;100.00
9721;BME280;4899;42.644;23.366;2023-04-10T02:39:47;94282.59;;;7.45;100.00
9721;BME280;4899;42.644;23.366;2023-04-10T02:42:13;94280.50;;;7.47;100.00
9721;BME280;4899;42.644;23.366;2023-04-10T02:44:38;94266.38;;;7.49;100.00
9721;BME280;4899;42.644;23.366;2023-04-10T02:47:04;94265.91;;;7.47;100.00
9721;BME280;4899;42.644;23.366;2023-04-10T02:49:31;94262.13;;;7.45;100.00
9721;BME280;4899;42.644;23.366;2023-04-10T02:51:57;94250.16;;;7.40;100.00
9721;BME280;4899;42.644;23.366;2023-04-10T02:54:23;94255.00;;;7.41;100.00
9721;BME280;4899;42.644;23.366;2023-04-10T02:56:48;94255.75;;;7.42;100.00
9721;BME280;4899;42.644;23.366;2023-04-10T02:59:14;94251.03;;;7.35;100.00
9721;BME280;4899;42.644;23.366;2023-04-10T03:01:39;94249.78;;;7.33;100.00
9721;BME280;4899;42.644;23.366;2023-04-10T03:04:04;94251.31;;;7.34;100.00
9721;BME280;4899;42.644;23.366;2023-04-10T03:06:30;94252.81;;;7.35;100.00
9721;BME280;4899;42.644;23.366;2023-04-10T03:08:56;94258.03;;;7.30;100.00
9721;BME280;4899;42.644;23.366;2023-04-10T03:11:21;94252.75;;;7.26;100.00
9721;BME280;4899;42.644;23.366;2023-04-10T03:13:47;94261.19;;;7.27;100.00
9721;BME280;4899;42.644;23.366;2023-04-10T03:16:13;94260.03;;;7.33;100.00
9721;BME280;4899;42.644;23.366;2023-04-10T03:18:39;94255.94;;;7.04;100.00
9721;BME280;4899;42.644;23.366;2023-04-10T03:21:05;94252.09;;;7.21;100.00
9721;BME280;4899;42.644;23.366;2023-04-10T03:23:31;94260.31;;;7.18;100.00
9721;BME280;4899;42.644;23.366;2023-04-10T03:25:56;94253.38;;;7.18;100.00
9721;BME280;4899;42.644;23.366;2023-04-10T03:28:22;94265.91;;;7.20;100.00
9721;BME280;4899;42.644;23.366;2023-04-10T03:30:48;94257.66;;;7.09;100.00
9721;BME280;4899;42.644;23.366;2023-04-10T03:33:14;94258.22;;;7.06;100.00
9721;BME280;4899;42.644;23.366;2023-04-10T03:35:40;94258.78;;;7.03;100.00
9721;BME280;4899;42.644;23.366;2023-04-10T03:38:05;94264.19;;;7.01;100.00
9721;BME280;4899;42.644;23.366;2023-04-10T03:40:31;94261.72;;;6.96;100.00
9721;BME280;4899;42.644;23.366;2023-04-10T03:42:58;94267.88;;;6.95;100.00
9721;BME280;4899;42.644;23.366;2023-04-10T03:45:24;94262.84;;;6.90;100.00
9721;BME280;4899;42.644;23.366;2023-04-10T03:47:51;94264.34;;;6.91;100.00
9721;BME280;4899;42.644;23.366;2023-04-10T03:50:16;94268.91;;;6.94;100.00
9721;BME280;4899;42.644;23.366;2023-04-10T03:52:41;94264.06;;;6.93;100.00
9721;BME280;4899;42.644;23.366;2023-04-10T03:55:07;94250.91;;;6.86;100.00
9721;BME280;4899;42.644;23.366;2023-04-10T03:57:32;94271.78;;;7.06;100.00
9721;BME280;4899;42.644;23.366;2023-04-10T03:59:58;94260.50;;;7.07;100.00
9721;BME280;4899;42.644;23.366;2023-04-10T04:02:23;94281.81;;;7.17;100.00
9721;BME280;4899;42.644;23.366;2023-04-10T04:04:49;94276.22;;;7.15;100.00
9721;BME280;4899;42.644;23.366;2023-04-10T04:07:14;94282.78;;;7.21;100.00
9721;BME280;4899;42.644;23.366;2023-04-10T04:09:40;94294.91;;;7.29;100.00
9721;BME280;4899;42.644;23.366;2023-04-10T04:12:06;94289.97;;;7.32;100.00
9721;BME280;4899;42.644;23.366;2023-04-10T04:14:32;94291.69;;;7.37;100.00
9721;BME280;4899;42.644;23.366;2023-04-10T04:16:57;94289.41;;;7.35;100.00
9721;BME280;4899;42.644;23.366;2023-04-10T04:19:23;94289.59;;;7.39;100.00
9721;BME280;4899;42.644;23.366;2023-04-10T04:21:48;94289.41;;;7.35;100.00
9721;BME280;4899;42.644;23.366;2023-04-10T04:24:15;94288.19;;;7.33;100.00
9721;BME280;4899;42.644;23.366;2023-04-10T04:26:40;94287.69;;;7.31;100.00
9721;BME280;4899;42.644;23.366;2023-04-10T04:29:06;94301.34;;;7.40;100.00
9721;BME280;4899;42.644;23.366;2023-04-10T04:31:31;94300.00;;;7.43;100.00
9721;BME280;4899;42.644;23.366;2023-04-10T04:33:58;94303.06;;;7.45;100.00
9721;BME280;4899;42.644;23.366;2023-04-10T04:36:23;94296.34;;;7.49;100.00
9721;BME280;4899;42.644;23.366;2023-04-10T04:38:49;94302.41;;;7.53;100.00
9721;BME280;4899;42.644;23.366;2023-04-10T04:41:14;94297.00;;;7.54;100.00
9721;BME280;4899;42.644;23.366;2023-04-10T04:43:40;94299.94;;;7.48;100.00
9721;BME280;4899;42.644;23.366;2023-04-10T04:46:05;94304.00;;;7.49;100.00
9721;BME280;4899;42.644;23.366;2023-04-10T04:48:31;94304.38;;;7.42;100.00
9721;BME280;4899;42.644;23.366;2023-04-10T04:50:56;94307.97;;;7.41;100.00
9721;BME280;4899;42.644;23.366;2023-04-10T04:53:22;94299.94;;;7.34;100.00
9721;BME280;4899;42.644;23.366;2023-04-10T04:55:47;94318.13;;;7.32;100.00
9721;BME280;4899;42.644;23.366;2023-04-10T04:58:12;94324.47;;;7.35;100.00
9721;BME280;4899;42.644;23.366;2023-04-10T05:00:38;94318.41;;;7.31;100.00
9721;BME280;4899;42.644;23.366;2023-04-10T05:03:03;94317.34;;;7.32;100.00
9721;BME280;4899;42.644;23.366;2023-04-10T05:05:32;94318.22;;;7.27;100.00
9721;BME280;4899;42.644;23.366;2023-04-10T05:07:57;94318.78;;;7.24;100.00
9721;BME280;4899;42.644;23.366;2023-04-10T05:10:22;94320.50;;;7.29;100.00
9721;BME280;4899;42.644;23.366;2023-04-10T05:12:48;94316.88;;;7.30;100.00
9721;BME280;4899;42.644;23.366;2023-04-10T05:15:13;94326.56;;;7.33;100.00
9721;BME280;4899;42.644;23.366;2023-04-10T05:17:39;94319.91;;;7.32;100.00
9721;BME280;4899;42.644;23.366;2023-04-10T05:20:05;94338.31;;;7.34;100.00
9721;BME280;4899;42.644;23.366;2023-04-10T05:22:31;94326.94;;;7.40;100.00
9721;BME280;4899;42.644;23.366;2023-04-10T05:24:56;94330.53;;;7.39;100.00
9721;BME280;4899;42.644;23.366;2023-04-10T05:27:23;94325.41;;;7.39;100.00
9721;BME280;4899;42.644;23.366;2023-04-10T05:29:49;94326.28;;;7.48;100.00
9721;BME280;4899;42.644;23.366;2023-04-10T05:32:14;94317.28;;;7.51;100.00
9721;BME280;4899;42.644;23.366;2023-04-10T05:34:39;94324.47;;;7.62;100.00
9721;BME280;4899;42.644;23.366;2023-04-10T05:37:05;94325.69;;;7.65;100.00
9721;BME280;4899;42.644;23.366;2023-04-10T05:39:30;94305.25;;;7.51;100.00
9721;BME280;4899;42.644;23.366;2023-04-10T05:41:56;94310.16;;;7.61;100.00
9721;BME280;4899;42.644;23.366;2023-04-10T05:44:22;94328.28;;;7.79;100.00
9721;BME280;4899;42.644;23.366;2023-04-10T05:46:48;94327.31;;;7.88;100.00
9721;BME280;4899;42.644;23.366;2023-04-10T05:49:13;94328.44;;;7.96;100.00
9721;BME280;4899;42.644;23.366;2023-04-10T05:51:39;94337.53;;;8.02;100.00
9721;BME280;4899;42.644;23.366;2023-04-10T05:54:04;94326.97;;;8.17;100.00
9721;BME280;4899;42.644;23.366;2023-04-10T05:56:30;94327.25;;;8.29;100.00
9721;BME280;4899;42.644;23.366;2023-04-10T05:58:55;94331.41;;;8.39;100.00
9721;BME280;4899;42.644;23.366;2023-04-10T06:01:21;94331.59;;;8.43;100.00
9721;BME280;4899;42.644;23.366;2023-04-10T06:03:46;94330.78;;;8.56;100.00
9721;BME280;4899;42.644;23.366;2023-04-10T06:06:12;94325.06;;;8.59;100.00
9721;BME280;4899;42.644;23.366;2023-04-10T06:08:37;94340.72;;;8.71;100.00
9721;BME280;4899;42.644;23.366;2023-04-10T06:11:03;94338.03;;;8.76;100.00
9721;BME280;4899;42.644;23.366;2023-04-10T06:13:28;94340.59;;;8.99;100.00
9721;BME280;4899;42.644;23.366;2023-04-10T06:15:54;94338.00;;;9.21;100.00
9721;BME280;4899;42.644;23.366;2023-04-10T06:18:19;94324.91;;;9.31;100.00
9721;BME280;4899;42.644;23.366;2023-04-10T06:20:44;94337.09;;;9.56;100.00
9721;BME280;4899;42.644;23.366;2023-04-10T06:23:12;94329.59;;;9.69;100.00
9721;BME280;4899;42.644;23.366;2023-04-10T06:25:38;94336.72;;;9.89;100.00
9721;BME280;4899;42.644;23.366;2023-04-10T06:28:03;94329.81;;;9.98;100.00
9721;BME280;4899;42.644;23.366;2023-04-10T06:30:29;94329.81;;;10.07;100.00
9721;BME280;4899;42.644;23.366;2023-04-10T06:32:55;94321.75;;;9.91;100.00
9721;BME280;4899;42.644;23.366;2023-04-10T06:35:21;94332.69;;;10.14;100.00
9721;BME280;4899;42.644;23.366;2023-04-10T06:37:47;94323.22;;;10.23;100.00
9721;BME280;4899;42.644;23.366;2023-04-10T06:40:13;94337.31;;;10.43;100.00
9721;BME280;4899;42.644;23.366;2023-04-10T06:42:38;94339.88;;;10.52;100.00
9721;BME280;4899;42.644;23.366;2023-04-10T06:45:05;94339.44;;;10.67;100.00
9721;BME280;4899;42.644;23.366;2023-04-10T06:47:31;94347.56;;;10.77;100.00
9721;BME280;4899;42.644;23.366;2023-04-10T06:49:57;94347.56;;;10.77;100.00
9721;BME280;4899;42.644;23.366;2023-04-10T06:52:22;94351.06;;;10.82;100.00
9721;BME280;4899;42.644;23.366;2023-04-10T06:54:47;94346.66;;;10.91;100.00
9721;BME280;4899;42.644;23.366;2023-04-10T06:57:13;94348.75;;;11.06;100.00
9721;BME280;4899;42.644;23.366;2023-04-10T06:59:39;94351.78;;;11.08;98.91
9721;BME280;4899;42.644;23.366;2023-04-10T07:02:04;94356.16;;;11.07;98.49
9721;BME280;4899;42.644;23.366;2023-04-10T07:04:30;94347.69;;;11.16;96.96
9721;BME280;4899;42.644;23.366;2023-04-10T07:06:56;94360.09;;;11.14;96.28
9721;BME280;4899;42.644;23.366;2023-04-10T07:09:24;94351.59;;;11.13;96.76
9721;BME280;4899;42.644;23.366;2023-04-10T07:11:50;94350.38;;;11.28;95.19
9721;BME280;4899;42.644;23.366;2023-04-10T07:14:16;94347.00;;;11.36;92.38
9721;BME280;4899;42.644;23.366;2023-04-10T07:16:42;94345.19;;;11.36;92.02
9721;BME280;4899;42.644;23.366;2023-04-10T07:19:07;94346.47;;;11.22;91.85
9721;BME280;4899;42.644;23.366;2023-04-10T07:21:33;94347.81;;;11.19;92.25
9721;BME280;4899;42.644;23.366;2023-04-10T07:23:58;94345.88;;;11.16;92.67
9721;BME280;4899;42.644;23.366;2023-04-10T07:26:24;94358.25;;;11.23;91.09
9721;BME280;4899;42.644;23.366;2023-04-10T07:28:50;94351.91;;;11.12;91.51
9721;BME280;4899;42.644;23.366;2023-04-10T07:31:15;94359.63;;;11.12;92.17
9721;BME280;4899;42.644;23.366;2023-04-10T07:33:43;94346.34;;;11.01;92.68
9721;BME280;4899;42.644;23.366;2023-04-10T07:36:08;94364.19;;;11.06;93.81
9721;BME280;4899;42.644;23.366;2023-04-10T07:38:34;94327.59;;;10.92;92.32
9721;BME280;4899;42.644;23.366;2023-04-10T07:40:59;94358.25;;;11.14;92.13
9721;BME280;4899;42.644;23.366;2023-04-10T07:43:25;94366.44;;;11.25;91.14
9721;BME280;4899;42.644;23.366;2023-04-10T07:45:51;94361.56;;;11.40;89.93
9721;BME280;4899;42.644;23.366;2023-04-10T07:48:17;94370.31;;;11.48;88.60
9721;BME280;4899;42.644;23.366;2023-04-10T07:50:42;94360.16;;;11.52;88.34
9721;BME280;4899;42.644;23.366;2023-04-10T07:53:08;94358.72;;;11.71;86.43
9721;BME280;4899;42.644;23.366;2023-04-10T07:55:41;94364.97;;;12.00;84.24
9721;BME280;4899;42.644;23.366;2023-04-10T07:58:06;94345.09;;;12.00;83.93
9721;BME280;4899;42.644;23.366;2023-04-10T08:00:32;94353.19;;;12.20;83.43
9721;BME280;4899;42.644;23.366;2023-04-10T08:02:58;94352.75;;;12.18;80.77
9721;BME280;4899;42.644;23.366;2023-04-10T08:05:23;94354.19;;;12.27;82.27
9721;BME280;4899;42.644;23.366;2023-04-10T08:07:49;94351.25;;;12.17;81.92
9721;BME280;4899;42.644;23.366;2023-04-10T08:10:14;94353.00;;;12.25;81.78
9721;BME280;4899;42.644;23.366;2023-04-10T08:12:40;94355.97;;;12.15;80.92
9721;BME280;4899;42.644;23.366;2023-04-10T08:15:06;94359.41;;;12.19;81.54
9721;BME280;4899;42.644;23.366;2023-04-10T08:17:31;94356.34;;;12.25;81.81
9721;BME280;4899;42.644;23.366;2023-04-10T08:19:56;94361.25;;;12.39;79.67
9721;BME280;4899;42.644;23.366;2023-04-10T08:22:22;94356.22;;;12.43;80.16
9721;BME280;4899;42.644;23.366;2023-04-10T08:24:48;94357.00;;;12.64;78.86
9721;BME280;4899;42.644;23.366;2023-04-10T08:27:14;94357.59;;;12.82;78.10
9721;BME280;4899;42.644;23.366;2023-04-10T08:29:41;94353.50;;;12.81;77.57
9721;BME280;4899;42.644;23.366;2023-04-10T08:32:06;94356.31;;;12.88;74.98
9721;BME280;4899;42.644;23.366;2023-04-10T08:34:32;94353.78;;;13.00;73.20
9721;BME280;4899;42.644;23.366;2023-04-10T08:36:57;94354.44;;;12.97;73.53
9721;BME280;4899;42.644;23.366;2023-04-10T08:39:23;94367.47;;;13.13;73.34
9721;BME280;4899;42.644;23.366;2023-04-10T08:41:48;94361.44;;;13.09;72.86
9721;BME280;4899;42.644;23.366;2023-04-10T08:44:14;94350.63;;;13.15;71.50
9721;BME280;4899;42.644;23.366;2023-04-10T08:46:44;94364.16;;;13.12;70.50
9721;BME280;4899;42.644;23.366;2023-04-10T08:49:16;94360.03;;;13.20;68.57
9721;BME280;4899;42.644;23.366;2023-04-10T08:51:51;94350.03;;;13.10;67.57
9721;BME280;4899;42.644;23.366;2023-04-10T08:54:25;94347.56;;;13.13;69.38
9721;BME280;4899;42.644;23.366;2023-04-10T08:56:53;94366.72;;;13.12;70.27
9721;BME280;4899;42.644;23.366;2023-04-10T08:59:19;94353.56;;;12.93;70.54
9721;BME280;4899;42.644;23.366;2023-04-10T09:01:45;94342.84;;;12.82;70.54
9721;BME280;4899;42.644;23.366;2023-04-10T09:04:12;94349.03;;;12.90;69.58
9721;BME280;4899;42.644;23.366;2023-04-10T09:06:38;94345.97;;;12.76;70.35
9721;BME280;4899;42.644;23.366;2023-04-10T09:09:05;94336.47;;;12.68;70.24
9721;BME280;4899;42.644;23.366;2023-04-10T09:12:03;94345.44;;;12.61;65.67
9721;BME280;4899;42.644;23.366;2023-04-10T09:14:32;94340.72;;;12.63;70.19
9721;BME280;4899;42.644;23.366;2023-04-10T09:17:19;94345.88;;;12.63;68.04
9721;BME280;4899;42.644;23.366;2023-04-10T09:19:50;94326.25;;;12.71;70.89
9721;BME280;4899;42.644;23.366;2023-04-10T09:22:29;94339.09;;;12.80;69.79
9721;BME280;4899;42.644;23.366;2023-04-10T09:24:57;94331.78;;;12.82;70.52
9721;BME280;4899;42.644;23.366;2023-04-10T09:27:34;94331.03;;;12.81;66.96
9721;BME280;4899;42.644;23.366;2023-04-10T09:30:02;94338.72;;;12.90;69.72
9721;BME280;4899;42.644;23.366;2023-04-10T09:35:08;94330.47;;;12.76;69.87
9721;BME280;4899;42.644;23.366;2023-04-10T09:37:34;94338.84;;;12.52;69.74
9721;BME280;4899;42.644;23.366;2023-04-10T09:40:01;94325.28;;;12.43;70.46
9721;BME280;4899;42.644;23.366;2023-04-10T09:42:31;94319.38;;;12.42;69.66
9721;BME280;4899;42.644;23.366;2023-04-10T09:44:57;94315.31;;;12.32;70.71
9721;BME280;4899;42.644;23.366;2023-04-10T09:47:23;94317.91;;;12.32;71.22
9721;BME280;4899;42.644;23.366;2023-04-10T09:49:53;94320.13;;;12.43;73.39
9721;BME280;4899;42.644;23.366;2023-04-10T09:52:21;94320.34;;;12.50;74.56
9721;BME280;4899;42.644;23.366;2023-04-10T09:54:47;94326.91;;;12.68;73.71
9721;BME280;4899;42.644;23.366;2023-04-10T09:57:15;94323.66;;;12.92;69.81
9721;BME280;4899;42.644;23.366;2023-04-10T09:59:47;94319.38;;;13.08;69.04
9721;BME280;4899;42.644;23.366;2023-04-10T10:02:13;94316.31;;;13.27;67.48
9721;BME280;4899;42.644;23.366;2023-04-10T10:04:40;94315.16;;;13.37;66.60
9721;BME280;4899;42.644;23.366;2023-04-10T10:07:06;94319.69;;;13.52;65.80
9721;BME280;4899;42.644;23.366;2023-04-10T10:09:33;94314.97;;;13.66;62.93
9721;BME280;4899;42.644;23.366;2023-04-10T10:12:00;94312.94;;;13.72;61.65
9721;BME280;4899;42.644;23.366;2023-04-10T10:14:26;94305.91;;;13.72;60.28
9721;BME280;4899;42.644;23.366;2023-04-10T10:16:55;94311.00;;;13.69;60.09
9721;BME280;4899;42.644;23.366;2023-04-10T10:19:31;94304.41;;;13.71;59.04
9721;BME280;4899;42.644;23.366;2023-04-10T10:21:59;94306.56;;;13.81;59.25
9721;BME280;4899;42.644;23.366;2023-04-10T10:24:26;94298.78;;;13.81;58.35
9721;BME280;4899;42.644;23.366;2023-04-10T10:26:53;94301.38;;;13.94;58.22
9721;BME280;4899;42.644;23.366;2023-04-10T10:29:22;94302.84;;;14.19;56.91
9721;BME280;4899;42.644;23.366;2023-04-10T10:31:48;94294.56;;;14.66;56.96
9721;BME280;4899;42.644;23.366;2023-04-10T10:34:15;94293.31;;;14.75;56.18
9721;BME280;4899;42.644;23.366;2023-04-10T10:36:41;94291.03;;;15.02;55.79
9721;BME280;4899;42.644;23.366;2023-04-10T10:39:33;94290.81;;;15.23;51.14
9721;BME280;4899;42.644;23.366;2023-04-10T10:42:35;94291.88;;;15.22;51.54
9721;BME280;4899;42.644;23.366;2023-04-10T10:45:15;94275.41;;;14.98;52.39
9721;BME280;4899;42.644;23.366;2023-04-10T10:47:45;94249.13;;;14.84;54.02
9721;BME280;4899;42.644;23.366;2023-04-10T10:50:12;94267.03;;;14.89;53.70
9721;BME280;4899;42.644;23.366;2023-04-10T10:52:47;94271.59;;;14.80;53.36
9721;BME280;4899;42.644;23.366;2023-04-10T10:55:27;94266.50;;;14.84;52.27
9721;BME280;4899;42.644;23.366;2023-04-10T10:58:00;94253.38;;;14.76;54.16
9721;BME280;4899;42.644;23.366;2023-04-10T11:05:50;94253.28;;;16.57;47.74
9721;BME280;4899;42.644;23.366;2023-04-10T11:08:16;94229.13;;;16.95;50.03
9721;BME280;4899;42.644;23.366;2023-04-10T11:11:01;94245.78;;;17.63;44.89
9721;BME280;4899;42.644;23.366;2023-04-10T11:13:28;94247.22;;;18.13;47.51
9721;BME280;4899;42.644;23.366;2023-04-10T11:15:55;94240.59;;;17.89;48.11
9721;BME280;4899;42.644;23.366;2023-04-10T11:21:19;94240.84;;;16.85;47.55
9721;BME280;4899;42.644;23.366;2023-04-10T11:31:42;94216.03;;;15.56;48.67
9721;BME280;4899;42.644;23.366;2023-04-10T11:34:08;94221.41;;;15.00;49.25
9721;BME280;4899;42.644;23.366;2023-04-10T11:36:39;94217.06;;;14.73;49.72
9721;BME280;4899;42.644;23.366;2023-04-10T11:39:09;94214.56;;;15.08;49.36
9721;BME280;4899;42.644;23.366;2023-04-10T11:41:44;94211.47;;;15.85;48.33
9721;BME280;4899;42.644;23.366;2023-04-10T11:44:18;94220.38;;;16.42;48.28
9721;BME280;4899;42.644;23.366;2023-04-10T11:46:46;94228.16;;;16.42;48.98
9721;BME280;4899;42.644;23.366;2023-04-10T11:49:18;94215.16;;;16.61;47.27
9721;BME280;4899;42.644;23.366;2023-04-10T11:51:45;94222.81;;;17.19;47.54
9721;BME280;4899;42.644;23.366;2023-04-10T11:54:12;94225.19;;;17.54;46.93
9721;BME280;4899;42.644;23.366;2023-04-10T11:56:40;94217.03;;;17.29;46.95
9721;BME280;4899;42.644;23.366;2023-04-10T11:59:07;94219.19;;;17.23;47.15
9721;BME280;4899;42.644;23.366;2023-04-10T12:01:41;94214.22;;;16.50;46.75
9721;BME280;4899;42.644;23.366;2023-04-10T12:04:13;94221.31;;;15.95;46.59
9721;BME280;4899;42.644;23.366;2023-04-10T12:06:48;94217.03;;;15.67;47.37
9721;BME280;4899;42.644;23.366;2023-04-10T12:09:18;94215.50;;;15.16;47.69
9721;BME280;4899;42.644;23.366;2023-04-10T12:12:10;94211.63;;;14.78;47.87
9721;BME280;4899;42.644;23.366;2023-04-10T12:14:38;94201.75;;;14.68;49.80
9721;BME280;4899;42.644;23.366;2023-04-10T12:17:05;94191.66;;;14.78;49.30
9721;BME280;4899;42.644;23.366;2023-04-10T12:19:32;94215.88;;;14.70;50.62
9721;BME280;4899;42.644;23.366;2023-04-10T12:21:58;94222.22;;;14.17;52.46
9721;BME280;4899;42.644;23.366;2023-04-10T12:24:45;94216.94;;;13.61;56.44
9721;BME280;4899;42.644;23.366;2023-04-10T12:27:22;94215.81;;;13.22;58.76
9721;BME280;4899;42.644;23.366;2023-04-10T12:29:49;94222.28;;;12.83;60.40
9721;BME280;4899;42.644;23.366;2023-04-10T12:32:16;94228.09;;;12.80;63.00
9721;BME280;4899;42.644;23.366;2023-04-10T12:34:48;94224.06;;;12.58;68.58
9721;BME280;4899;42.644;23.366;2023-04-10T12:37:14;94215.16;;;12.35;70.90
9721;BME280;4899;42.644;23.366;2023-04-10T12:39:39;94219.34;;;12.27;72.40
9721;BME280;4899;42.644;23.366;2023-04-10T12:47:19;94202.13;;;11.98;72.40
9721;BME280;4899;42.644;23.366;2023-04-10T12:50:07;94223.31;;;12.24;72.55
9721;BME280;4899;42.644;23.366;2023-04-10T12:52:33;94204.97;;;12.71;66.96
9721;BME280;4899;42.644;23.366;2023-04-10T12:55:19;94219.13;;;13.59;60.34
9721;BME280;4899;42.644;23.366;2023-04-10T12:57:47;94222.59;;;14.31;59.60
9721;BME280;4899;42.644;23.366;2023-04-10T13:00:17;94211.78;;;14.85;58.52
9721;BME280;4899;42.644;23.366;2023-04-10T13:02:44;94201.69;;;15.12;56.48
9721;BME280;4899;42.644;23.366;2023-04-10T13:05:10;94210.53;;;15.26;56.40
9721;BME280;4899;42.644;23.366;2023-04-10T13:07:35;94205.28;;;15.23;56.33
9721;BME280;4899;42.644;23.366;2023-04-10T13:10:02;94212.44;;;15.61;55.14
9721;BME280;4899;42.644;23.366;2023-04-10T13:12:28;94197.63;;;15.96;55.06
9721;BME280;4899;42.644;23.366;2023-04-10T13:14:55;94201.63;;;16.52;53.69
9721;BME280;4899;42.644;23.366;2023-04-10T13:17:21;94197.94;;;16.95;52.45
9721;BME280;4899;42.644;23.366;2023-04-10T13:19:47;94192.25;;;17.35;52.29
9721;BME280;4899;42.644;23.366;2023-04-10T13:22:13;94204.03;;;17.56;51.38
9721;BME280;4899;42.644;23.366;2023-04-10T13:24:39;94196.81;;;17.68;51.10
9721;BME280;4899;42.644;23.366;2023-04-10T13:27:04;94196.44;;;17.96;50.38
9721;BME280;4899;42.644;23.366;2023-04-10T13:29:30;94196.09;;;18.65;49.42
9721;BME280;4899;42.644;23.366;2023-04-10T13:31:55;94198.22;;;20.10;47.40
9721;BME280;4899;42.644;23.366;2023-04-10T13:34:21;94191.66;;;20.51;45.95
9721;BME280;4899;42.644;23.366;2023-04-10T13:36:46;94203.09;;;20.11;46.02
9721;BME280;4899;42.644;23.366;2023-04-10T13:39:12;94200.56;;;20.33;45.88
9721;BME280;4899;42.644;23.366;2023-04-10T13:41:38;94195.44;;;20.57;45.17
9721;BME280;4899;42.644;23.366;2023-04-10T13:44:03;94184.09;;;20.25;45.06
9721;BME280;4899;42.644;23.366;2023-04-10T13:46:29;94186.09;;;20.60;43.86
9721;BME280;4899;42.644;23.366;2023-04-10T13:48:54;94172.69;;;21.40;43.63
9721;BME280;4899;42.644;23.366;2023-04-10T13:51:20;94173.66;;;21.96;42.80
9721;BME280;4899;42.644;23.366;2023-04-10T13:53:45;94175.16;;;22.04;42.52